sensor_id;sensor_type;location;lat;lon;timestamp;pressure;altitude;pressure_sealevel;temperature;humidity
76128;BME280;64873;50.102;14.434;2023-12-22T00:01:24;96942.00;;;5.37;63.12
76128;BME280;64873;50.102;14.434;2023-12-22T00:03:49;96950.50;;;5.39;63.44
76128;BME280;64873;50.102;14.434;2023-12-22T00:06:15;96944.56;;;5.32;62.83
76128;BME280;64873;50.102;14.434;2023-12-22T00:08:41;96946.81;;;5.40;63.15
76128;BME280;64873;50.102;14.434;2023-12-22T00:11:06;96948.00;;;5.32;62.81
76128;BME280;64873;50.102;14.434;2023-12-22T00:13:32;96951.44;;;5.33;62.71
76128;BME280;64873;50.102;14.434;2023-12-22T00:15:59;96939.34;;;5.37;62.10
76128;BME280;64873;50.102;14.434;2023-12-22T00:18:25;96949.94;;;5.37;62.49
76128;BME280;64873;50.102;14.434;2023-12-22T00:20:51;96946.81;;;5.40;62.55
76128;BME280;64873;50.102;14.434;2023-12-22T00:23:16;96952.66;;;5.42;61.85
76128;BME280;64873;50.102;14.434;2023-12-22T00:25:41;96956.63;;;5.40;62.38
76128;BME280;64873;50.102;14.434;2023-12-22T00:28:07;96937.25;;;5.39;62.15
76128;BME280;64873;50.102;14.434;2023-12-22T00:30:32;96945.94;;;5.34;62.20
76128;BME280;64873;50.102;14.434;2023-12-22T00:32:58;96951.53;;;5.38;61.72
76128;BME280;64873;50.102;14.434;2023-12-22T00:35:23;96959.19;;;5.34;62.08
76128;BME280;64873;50.102;14.434;2023-12-22T00:37:48;96955.47;;;5.35;61.35
76128;BME280;64873;50.102;14.434;2023-12-22T00:40:14;96959.34;;;5.28;61.65
76128;BME280;64873;50.102;14.434;2023-12-22T00:42:39;96957.22;;;5.13;62.03
76128;BME280;64873;50.102;14.434;2023-12-22T00:45:05;96954.81;;;5.12;62.08
76128;BME280;64873;50.102;14.434;2023-12-22T00:47:31;96968.63;;;5.14;61.48
76128;BME280;64873;50.102;14.434;2023-12-22T00:49:56;96947.13;;;5.10;61.92
76128;BME280;64873;50.102;14.434;2023-12-22T00:52:22;96958.53;;;5.11;62.29
76128;BME280;64873;50.102;14.434;2023-12-22T00:54:48;96966.69;;;5.09;62.70
76128;BME280;64873;50.102;14.434;2023-12-22T00:57:14;96963.31;;;5.14;62.63
76128;BME280;64873;50.102;14.434;2023-12-22T00:59:39;96980.88;;;5.03;63.54
76128;BME280;64873;50.102;14.434;2023-12-22T01:02:10;96976.63;;;5.02;62.84
76128;BME280;64873;50.102;14.434;2023-12-22T01:04:36;96983.19;;;4.99;63.57
76128;BME280;64873;50.102;14.434;2023-12-22T01:07:01;96980.97;;;5.08;62.96
76128;BME280;64873;50.102;14.434;2023-12-22T01:09:26;96982.72;;;5.02;63.42
76128;BME280;64873;50.102;14.434;2023-12-22T01:11:52;96972.75;;;4.93;64.65
76128;BME280;64873;50.102;14.434;2023-12-22T01:14:17;96998.69;;;5.07;63.92
76128;BME280;64873;50.102;14.434;2023-12-22T01:16:43;96989.69;;;5.08;63.25
76128;BME280;64873;50.102;14.434;2023-12-22T01:19:08;96982.84;;;4.96;63.71
76128;BME280;64873;50.102;14.434;2023-12-22T01:21:33;96997.00;;;5.01;64.06
76128;BME280;64873;50.102;14.434;2023-12-22T01:23:59;97005.38;;;5.10;63.19
76128;BME280;64873;50.102;14.434;2023-12-22T01:26:24;96999.03;;;5.11;63.03
76128;BME280;64873;50.102;14.434;2023-12-22T01:28:50;96999.47;;;5.08;63.12
76128;BME280;64873;50.102;14.434;2023-12-22T01:31:15;97009.28;;;5.07;62.97
76128;BME280;64873;50.102;14.434;2023-12-22T01:33:41;97008.72;;;5.05;63.67
76128;BME280;64873;50.102;14.434;2023-12-22T01:36:06;97008.63;;;5.00;64.00
76128;BME280;64873;50.102;14.434;2023-12-22T01:38:32;97003.03;;;4.85;64.27
76128;BME280;64873;50.102;14.434;2023-12-22T01:40:57;97014.56;;;4.79;64.69
76128;BME280;64873;50.102;14.434;2023-12-22T01:43:23;97018.38;;;4.71;65.37
76128;BME280;64873;50.102;14.434;2023-12-22T01:45:52;97022.97;;;4.76;64.49
76128;BME280;64873;50.102;14.434;2023-12-22T01:48:19;97002.03;;;4.74;64.41
76128;BME280;64873;50.102;14.434;2023-12-22T01:50:46;97014.91;;;4.82;64.60
76128;BME280;64873;50.102;14.434;2023-12-22T01:53:12;97019.06;;;4.78;64.53
76128;BME280;64873;50.102;14.434;2023-12-22T01:55:37;97011.16;;;4.67;64.85
76128;BME280;64873;50.102;14.434;2023-12-22T01:58:03;97019.19;;;4.72;64.98
76128;BME280;64873;50.102;14.434;2023-12-22T02:00:29;97007.25;;;4.69;64.78
76128;BME280;64873;50.102;14.434;2023-12-22T02:02:54;97013.25;;;4.65;64.99
76128;BME280;64873;50.102;14.434;2023-12-22T02:05:20;97019.66;;;4.69;64.46
76128;BME280;64873;50.102;14.434;2023-12-22T02:07:45;97022.78;;;4.66;64.62
76128;BME280;64873;50.102;14.434;2023-12-22T02:10:11;97011.72;;;4.69;64.30
76128;BME280;64873;50.102;14.434;2023-12-22T02:12:36;97016.31;;;4.73;63.49
76128;BME280;64873;50.102;14.434;2023-12-22T02:15:02;97002.97;;;4.68;64.06
76128;BME280;64873;50.102;14.434;2023-12-22T02:17:39;97005.34;;;4.53;64.16
76128;BME280;64873;50.102;14.434;2023-12-22T02:20:09;97003.00;;;4.57;63.73
76128;BME280;64873;50.102;14.434;2023-12-22T02:22:35;96988.44;;;4.42;63.95
76128;BME280;64873;50.102;14.434;2023-12-22T02:25:00;96996.94;;;4.44;64.62
76128;BME280;64873;50.102;14.434;2023-12-22T02:27:37;96994.78;;;4.41;64.16
76128;BME280;64873;50.102;14.434;2023-12-22T02:30:12;97007.53;;;4.44;64.30
76128;BME280;64873;50.102;14.434;2023-12-22T02:32:42;97013.84;;;4.43;63.72
76128;BME280;64873;50.102;14.434;2023-12-22T02:35:21;97000.31;;;4.40;63.91
76128;BME280;64873;50.102;14.434;2023-12-22T02:37:49;97008.31;;;4.45;63.42
76128;BME280;64873;50.102;14.434;2023-12-22T02:40:15;97006.81;;;4.49;63.69
76128;BME280;64873;50.102;14.434;2023-12-22T02:42:42;97004.31;;;4.42;63.60
76128;BME280;64873;50.102;14.434;2023-12-22T02:45:17;97003.84;;;4.45;63.41
76128;BME280;64873;50.102;14.434;2023-12-22T02:47:43;96990.06;;;4.32;64.15
76128;BME280;64873;50.102;14.434;2023-12-22T02:50:09;96996.66;;;4.29;63.68
76128;BME280;64873;50.102;14.434;2023-12-22T02:52:35;97005.03;;;4.26;63.53
76128;BME280;64873;50.102;14.434;2023-12-22T02:55:01;97012.97;;;4.26;63.37
76128;BME280;64873;50.102;14.434;2023-12-22T02:57:27;97000.53;;;4.26;63.31
76128;BME280;64873;50.102;14.434;2023-12-22T02:59:52;97012.72;;;4.27;62.64
76128;BME280;64873;50.102;14.434;2023-12-22T03:02:17;97004.13;;;4.20;63.40
76128;BME280;64873;50.102;14.434;2023-12-22T03:04:43;97005.97;;;4.20;63.18
76128;BME280;64873;50.102;14.434;2023-12-22T03:07:08;97016.22;;;4.16;63.07
76128;BME280;64873;50.102;14.434;2023-12-22T03:09:34;96994.22;;;4.16;63.17
76128;BME280;64873;50.102;14.434;2023-12-22T03:12:00;97021.38;;;4.23;62.28
76128;BME280;64873;50.102;14.434;2023-12-22T03:14:31;97003.44;;;4.25;61.61
76128;BME280;64873;50.102;14.434;2023-12-22T03:17:04;97004.72;;;4.22;61.90
76128;BME280;64873;50.102;14.434;2023-12-22T03:19:31;97017.69;;;4.12;62.28
76128;BME280;64873;50.102;14.434;2023-12-22T03:21:56;97019.41;;;4.07;62.59
76128;BME280;64873;50.102;14.434;2023-12-22T03:24:25;97021.38;;;3.99;62.96
76128;BME280;64873;50.102;14.434;2023-12-22T03:26:52;97031.47;;;4.03;62.57
76128;BME280;64873;50.102;14.434;2023-12-22T03:29:18;97036.75;;;4.03;62.63
76128;BME280;64873;50.102;14.434;2023-12-22T03:31:44;97026.88;;;3.98;62.68
76128;BME280;64873;50.102;14.434;2023-12-22T03:34:09;97035.38;;;3.88;63.66
76128;BME280;64873;50.102;14.434;2023-12-22T03:36:35;97032.06;;;3.93;62.61
76128;BME280;64873;50.102;14.434;2023-12-22T03:39:01;97035.84;;;4.09;62.23
76128;BME280;64873;50.102;14.434;2023-12-22T03:41:27;97016.53;;;3.96;62.39
76128;BME280;64873;50.102;14.434;2023-12-22T03:43:54;97026.53;;;4.06;61.74
76128;BME280;64873;50.102;14.434;2023-12-22T03:46:19;97018.63;;;4.06;61.97
76128;BME280;64873;50.102;14.434;2023-12-22T03:48:45;97005.66;;;3.93;62.47
76128;BME280;64873;50.102;14.434;2023-12-22T03:51:11;97019.19;;;3.96;62.36
76128;BME280;64873;50.102;14.434;2023-12-22T03:53:38;97036.44;;;3.99;62.56
76128;BME280;64873;50.102;14.434;2023-12-22T03:56:04;97026.44;;;4.13;61.82
76128;BME280;64873;50.102;14.434;2023-12-22T03:58:29;97036.06;;;4.19;61.72
76128;BME280;64873;50.102;14.434;2023-12-22T04:00:56;97024.47;;;4.20;61.38
76128;BME280;64873;50.102;14.434;2023-12-22T04:03:21;97029.75;;;4.20;61.37
76128;BME280;64873;50.102;14.434;2023-12-22T04:05:47;97024.81;;;4.12;62.10
76128;BME280;64873;50.102;14.434;2023-12-22T04:08:12;97009.28;;;4.04;62.24
76128;BME280;64873;50.102;14.434;2023-12-22T04:10:37;97011.25;;;3.96;62.47
76128;BME280;64873;50.102;14.434;2023-12-22T04:13:03;96999.09;;;3.95;62.44
76128;BME280;64873;50.102;14.434;2023-12-22T04:15:28;97004.00;;;3.92;62.77
76128;BME280;64873;50.102;14.434;2023-12-22T04:17:54;97005.66;;;3.93;62.90
76128;BME280;64873;50.102;14.434;2023-12-22T04:20:19;97014.25;;;3.88;63.12
76128;BME280;64873;50.102;14.434;2023-12-22T04:22:44;97005.84;;;3.91;63.22
76128;BME280;64873;50.102;14.434;2023-12-22T04:25:10;97003.69;;;3.88;63.61
76128;BME280;64873;50.102;14.434;2023-12-22T04:27:35;97002.53;;;3.84;63.70
76128;BME280;64873;50.102;14.434;2023-12-22T04:30:01;96989.56;;;3.83;63.92
76128;BME280;64873;50.102;14.434;2023-12-22T04:32:26;97003.81;;;3.82;64.60
76128;BME280;64873;50.102;14.434;2023-12-22T04:34:52;96994.72;;;3.89;64.49
76128;BME280;64873;50.102;14.434;2023-12-22T04:37:17;96995.41;;;3.96;64.01
76128;BME280;64873;50.102;14.434;2023-12-22T04:39:43;96984.59;;;3.86;64.91
76128;BME280;64873;50.102;14.434;2023-12-22T04:42:08;96986.91;;;3.83;64.37
76128;BME280;64873;50.102;14.434;2023-12-22T04:44:33;96991.28;;;4.00;64.22
76128;BME280;64873;50.102;14.434;2023-12-22T04:46:59;96992.44;;;4.05;64.02
76128;BME280;64873;50.102;14.434;2023-12-22T04:49:25;97000.81;;;4.01;63.86
76128;BME280;64873;50.102;14.434;2023-12-22T04:51:50;96975.44;;;3.89;63.99
76128;BME280;64873;50.102;14.434;2023-12-22T04:54:16;96994.25;;;3.92;64.22
76128;BME280;64873;50.102;14.434;2023-12-22T04:56:41;96990.69;;;3.87;64.67
76128;BME280;64873;50.102;14.434;2023-12-22T04:59:06;96974.97;;;3.80;64.51
76128;BME280;64873;50.102;14.434;2023-12-22T05:01:32;96999.44;;;3.87;64.80
76128;BME280;64873;50.102;14.434;2023-12-22T05:03:57;96997.94;;;3.91;64.84
76128;BME280;64873;50.102;14.434;2023-12-22T05:06:22;96990.00;;;3.91;64.93
76128;BME280;64873;50.102;14.434;2023-12-22T05:08:48;97018.50;;;4.13;64.39
76128;BME280;64873;50.102;14.434;2023-12-22T05:11:13;97026.44;;;4.13;64.61
76128;BME280;64873;50.102;14.434;2023-12-22T05:13:39;97031.22;;;4.16;65.04
76128;BME280;64873;50.102;14.434;2023-12-22T05:16:05;97025.03;;;4.22;65.33
76128;BME280;64873;50.102;14.434;2023-12-22T05:18:31;97023.09;;;4.06;67.68
76128;BME280;64873;50.102;14.434;2023-12-22T05:20:56;97042.97;;;3.96;68.95
76128;BME280;64873;50.102;14.434;2023-12-22T05:23:22;97034.00;;;3.97;69.40
76128;BME280;64873;50.102;14.434;2023-12-22T05:25:47;97051.56;;;3.92;70.66
76128;BME280;64873;50.102;14.434;2023-12-22T05:28:13;97029.16;;;3.71;71.97
76128;BME280;64873;50.102;14.434;2023-12-22T05:30:38;97033.97;;;3.74;73.52
76128;BME280;64873;50.102;14.434;2023-12-22T05:33:04;97053.75;;;3.83;74.65
76128;BME280;64873;50.102;14.434;2023-12-22T05:35:29;97052.47;;;3.74;75.20
76128;BME280;64873;50.102;14.434;2023-12-22T05:37:55;97049.13;;;3.67;76.14
76128;BME280;64873;50.102;14.434;2023-12-22T05:40:20;97034.19;;;3.49;77.70
76128;BME280;64873;50.102;14.434;2023-12-22T05:42:45;97042.63;;;3.28;78.91
76128;BME280;64873;50.102;14.434;2023-12-22T05:45:11;97063.56;;;3.41;79.39
76128;BME280;64873;50.102;14.434;2023-12-22T05:47:37;97050.53;;;3.28;80.33
76128;BME280;64873;50.102;14.434;2023-12-22T05:50:03;97057.53;;;3.34;80.96
76128;BME280;64873;50.102;14.434;2023-12-22T05:52:29;97064.44;;;3.23;80.71
76128;BME280;64873;50.102;14.434;2023-12-22T05:54:54;97070.94;;;3.20;80.62
76128;BME280;64873;50.102;14.434;2023-12-22T05:57:20;97074.78;;;3.36;80.28
76128;BME280;64873;50.102;14.434;2023-12-22T05:59:45;97062.75;;;3.40;78.74
76128;BME280;64873;50.102;14.434;2023-12-22T06:02:11;97054.56;;;3.30;77.43
76128;BME280;64873;50.102;14.434;2023-12-22T06:04:36;97073.94;;;3.66;74.88
76128;BME280;64873;50.102;14.434;2023-12-22T06:07:02;97044.66;;;3.67;73.37
76128;BME280;64873;50.102;14.434;2023-12-22T06:09:27;97051.91;;;3.72;72.75
76128;BME280;64873;50.102;14.434;2023-12-22T06:11:53;97058.34;;;3.76;72.76
76128;BME280;64873;50.102;14.434;2023-12-22T06:14:18;97057.97;;;3.61;73.01
76128;BME280;64873;50.102;14.434;2023-12-22T06:16:44;97062.69;;;3.59;72.17
76128;BME280;64873;50.102;14.434;2023-12-22T06:19:09;97070.91;;;3.51;72.39
76128;BME280;64873;50.102;14.434;2023-12-22T06:21:38;97080.44;;;3.52;72.96
76128;BME280;64873;50.102;14.434;2023-12-22T06:24:04;97083.03;;;3.70;72.11
76128;BME280;64873;50.102;14.434;2023-12-22T06:26:29;97068.78;;;3.59;71.30
76128;BME280;64873;50.102;14.434;2023-12-22T06:28:55;97055.19;;;3.56;71.16
76128;BME280;64873;50.102;14.434;2023-12-22T06:31:21;97064.03;;;3.50;70.67
76128;BME280;64873;50.102;14.434;2023-12-22T06:33:48;97072.66;;;3.57;70.61
76128;BME280;64873;50.102;14.434;2023-12-22T06:36:26;97091.78;;;3.40;71.37
76128;BME280;64873;50.102;14.434;2023-12-22T06:38:52;97094.19;;;3.42;72.32
76128;BME280;64873;50.102;14.434;2023-12-22T06:41:25;97094.72;;;3.32;73.54
76128;BME280;64873;50.102;14.434;2023-12-22T06:43:51;97089.03;;;3.35;75.59
76128;BME280;64873;50.102;14.434;2023-12-22T06:46:17;97078.72;;;3.15;77.20
76128;BME280;64873;50.102;14.434;2023-12-22T06:48:43;97077.19;;;3.08;78.53
76128;BME280;64873;50.102;14.434;2023-12-22T06:51:25;97099.38;;;2.88;80.52
76128;BME280;64873;50.102;14.434;2023-12-22T06:53:59;97102.22;;;2.68;81.79
76128;BME280;64873;50.102;14.434;2023-12-22T06:56:30;97097.31;;;2.72;81.89
76128;BME280;64873;50.102;14.434;2023-12-22T06:58:56;97119.00;;;2.74;82.18
76128;BME280;64873;50.102;14.434;2023-12-22T07:01:34;97117.31;;;2.80;82.19
76128;BME280;64873;50.102;14.434;2023-12-22T07:04:01;97112.50;;;2.77;81.92
76128;BME280;64873;50.102;14.434;2023-12-22T07:06:30;97118.63;;;2.89;81.21
76128;BME280;64873;50.102;14.434;2023-12-22T07:11:24;97116.22;;;3.06;79.60
76128;BME280;64873;50.102;14.434;2023-12-22T07:13:49;97106.59;;;2.93;78.91
76128;BME280;64873;50.102;14.434;2023-12-22T07:16:15;97117.81;;;3.07;78.55
76128;BME280;64873;50.102;14.434;2023-12-22T07:18:41;97104.75;;;3.12;77.93
76128;BME280;64873;50.102;14.434;2023-12-22T07:21:06;97104.00;;;3.05;77.92
76128;BME280;64873;50.102;14.434;2023-12-22T07:23:32;97107.59;;;3.10;76.64
76128;BME280;64873;50.102;14.434;2023-12-22T07:25:58;97123.50;;;3.22;76.28
76128;BME280;64873;50.102;14.434;2023-12-22T07:28:23;97115.63;;;3.34;75.87
76128;BME280;64873;50.102;14.434;2023-12-22T07:30:49;97115.56;;;3.22;74.78
76128;BME280;64873;50.102;14.434;2023-12-22T07:33:14;97132.34;;;3.46;74.74
76128;BME280;64873;50.102;14.434;2023-12-22T07:35:39;97134.66;;;3.54;73.36
76128;BME280;64873;50.102;14.434;2023-12-22T07:38:05;97138.53;;;3.52;73.26
76128;BME280;64873;50.102;14.434;2023-12-22T07:40:30;97129.81;;;3.51;72.77
76128;BME280;64873;50.102;14.434;2023-12-22T07:42:56;97126.50;;;3.56;72.64
76128;BME280;64873;50.102;14.434;2023-12-22T07:45:22;97126.06;;;3.59;71.92
76128;BME280;64873;50.102;14.434;2023-12-22T07:47:47;97117.00;;;3.66;71.97
76128;BME280;64873;50.102;14.434;2023-12-22T07:50:13;97125.50;;;3.68;71.52
76128;BME280;64873;50.102;14.434;2023-12-22T07:52:39;97121.97;;;3.86;71.79
76128;BME280;64873;50.102;14.434;2023-12-22T07:55:08;97117.31;;;4.00;69.95
76128;BME280;64873;50.102;14.434;2023-12-22T07:57:38;97122.00;;;4.10;68.98
76128;BME280;64873;50.102;14.434;2023-12-22T08:00:07;97122.47;;;4.07;68.61
76128;BME280;64873;50.102;14.434;2023-12-22T08:02:34;97137.44;;;4.13;69.37
76128;BME280;64873;50.102;14.434;2023-12-22T08:05:00;97124.91;;;4.20;67.98
76128;BME280;64873;50.102;14.434;2023-12-22T08:07:25;97137.09;;;4.21;67.00
76128;BME280;64873;50.102;14.434;2023-12-22T08:09:50;97116.53;;;4.23;67.17
76128;BME280;64873;50.102;14.434;2023-12-22T08:12:16;97122.25;;;4.20;66.66
76128;BME280;64873;50.102;14.434;2023-12-22T08:14:41;97134.91;;;4.30;67.16
76128;BME280;64873;50.102;14.434;2023-12-22T08:17:07;97130.88;;;4.27;66.81
76128;BME280;64873;50.102;14.434;2023-12-22T08:19:32;97148.16;;;4.41;65.88
76128;BME280;64873;50.102;14.434;2023-12-22T08:21:58;97154.00;;;4.43;65.72
76128;BME280;64873;50.102;14.434;2023-12-22T08:24:23;97143.41;;;4.43;66.90
76128;BME280;64873;50.102;14.434;2023-12-22T08:26:49;97133.53;;;4.27;66.96
76128;BME280;64873;50.102;14.434;2023-12-22T08:29:15;97148.03;;;4.36;67.36
76128;BME280;64873;50.102;14.434;2023-12-22T08:31:44;97153.06;;;4.26;67.66
76128;BME280;64873;50.102;14.434;2023-12-22T08:34:10;97194.56;;;4.25;68.76
76128;BME280;64873;50.102;14.434;2023-12-22T08:36:35;97213.03;;;3.72;73.68
76128;BME280;64873;50.102;14.434;2023-12-22T08:39:01;97191.09;;;2.86;80.54
76128;BME280;64873;50.102;14.434;2023-12-22T08:41:27;97212.47;;;2.78;83.15
76128;BME280;64873;50.102;14.434;2023-12-22T08:43:52;97196.88;;;2.77;84.01
76128;BME280;64873;50.102;14.434;2023-12-22T08:46:17;97210.19;;;2.38;85.25
76128;BME280;64873;50.102;14.434;2023-12-22T08:48:43;97193.66;;;2.50;85.81
76128;BME280;64873;50.102;14.434;2023-12-22T08:51:08;97212.41;;;2.42;87.62
76128;BME280;64873;50.102;14.434;2023-12-22T08:53:34;97208.84;;;2.29;87.81
76128;BME280;64873;50.102;14.434;2023-12-22T08:56:02;97207.78;;;2.12;88.76
76128;BME280;64873;50.102;14.434;2023-12-22T08:58:29;97220.94;;;2.12;88.92
76128;BME280;64873;50.102;14.434;2023-12-22T09:00:54;97241.81;;;2.13;89.37
76128;BME280;64873;50.102;14.434;2023-12-22T09:03:20;97237.38;;;2.07;89.29
76128;BME280;64873;50.102;14.434;2023-12-22T09:05:45;97246.94;;;2.02;89.68
76128;BME280;64873;50.102;14.434;2023-12-22T09:08:12;97226.00;;;1.82;90.06
76128;BME280;64873;50.102;14.434;2023-12-22T09:10:37;97244.97;;;1.91;91.02
76128;BME280;64873;50.102;14.434;2023-12-22T09:13:03;97234.44;;;1.91;90.68
76128;BME280;64873;50.102;14.434;2023-12-22T09:15:28;97238.34;;;1.81;90.22
76128;BME280;64873;50.102;14.434;2023-12-22T09:17:54;97235.78;;;1.68;91.20
76128;BME280;64873;50.102;14.434;2023-12-22T09:20:21;97232.91;;;1.76;91.36
76128;BME280;64873;50.102;14.434;2023-12-22T09:22:47;97223.94;;;1.84;90.79
76128;BME280;64873;50.102;14.434;2023-12-22T09:25:12;97222.72;;;2.18;91.01
76128;BME280;64873;50.102;14.434;2023-12-22T09:27:37;97227.31;;;2.29;89.41
76128;BME280;64873;50.102;14.434;2023-12-22T09:30:03;97232.78;;;2.53;88.55
76128;BME280;64873;50.102;14.434;2023-12-22T09:32:32;97238.81;;;2.60;88.07
76128;BME280;64873;50.102;14.434;2023-12-22T09:34:57;97222.00;;;2.98;86.78
76128;BME280;64873;50.102;14.434;2023-12-22T09:37:24;97220.25;;;3.10;84.58
76128;BME280;64873;50.102;14.434;2023-12-22T09:39:49;97207.88;;;3.10;83.26
76128;BME280;64873;50.102;14.434;2023-12-22T09:42:15;97226.41;;;3.22;82.88
76128;BME280;64873;50.102;14.434;2023-12-22T09:44:42;97210.66;;;3.34;80.68
76128;BME280;64873;50.102;14.434;2023-12-22T09:47:09;97219.41;;;3.34;79.25
76128;BME280;64873;50.102;14.434;2023-12-22T09:49:37;97225.59;;;3.40;79.43
76128;BME280;64873;50.102;14.434;2023-12-22T09:52:04;97214.16;;;3.64;76.69
76128;BME280;64873;50.102;14.434;2023-12-22T09:54:32;97210.56;;;3.59;76.70
76128;BME280;64873;50.102;14.434;2023-12-22T09:56:59;97216.38;;;3.79;75.61
76128;BME280;64873;50.102;14.434;2023-12-22T09:59:25;97204.47;;;3.88;74.33
76128;BME280;64873;50.102;14.434;2023-12-22T10:01:52;97197.50;;;3.94;74.66
76128;BME280;64873;50.102;14.434;2023-12-22T10:04:18;97213.41;;;3.76;76.08
76128;BME280;64873;50.102;14.434;2023-12-22T10:06:44;97200.38;;;3.74;77.05
76128;BME280;64873;50.102;14.434;2023-12-22T10:09:12;97216.38;;;3.49;78.06
76128;BME280;64873;50.102;14.434;2023-12-22T10:11:40;97219.22;;;3.47;77.98
76128;BME280;64873;50.102;14.434;2023-12-22T10:14:07;97206.72;;;3.25;78.06
76128;BME280;64873;50.102;14.434;2023-12-22T10:16:34;97219.25;;;3.11;77.34
76128;BME280;64873;50.102;14.434;2023-12-22T10:19:01;97213.44;;;3.02;76.12
76128;BME280;64873;50.102;14.434;2023-12-22T10:21:26;97233.03;;;2.94;74.84
76128;BME280;64873;50.102;14.434;2023-12-22T10:23:52;97254.63;;;3.03;75.26
76128;BME280;64873;50.102;14.434;2023-12-22T10:26:17;97264.44;;;2.96;75.85
76128;BME280;64873;50.102;14.434;2023-12-22T10:28:43;97257.84;;;2.62;78.95
76128;BME280;64873;50.102;14.434;2023-12-22T10:31:09;97273.44;;;2.38;81.60
76128;BME280;64873;50.102;14.434;2023-12-22T10:33:34;97292.56;;;2.27;83.00
76128;BME280;64873;50.102;14.434;2023-12-22T10:36:00;97292.78;;;2.26;83.98
76128;BME280;64873;50.102;14.434;2023-12-22T10:38:34;97272.06;;;2.36;84.82
76128;BME280;64873;50.102;14.434;2023-12-22T10:41:03;97267.38;;;2.38;84.48
76128;BME280;64873;50.102;14.434;2023-12-22T10:43:30;97269.50;;;2.23;83.70
76128;BME280;64873;50.102;14.434;2023-12-22T10:45:56;97283.69;;;2.22;84.16
76128;BME280;64873;50.102;14.434;2023-12-22T10:48:24;97259.78;;;2.23;83.30
76128;BME280;64873;50.102;14.434;2023-12-22T10:50:50;97276.19;;;2.25;83.30
76128;BME280;64873;50.102;14.434;2023-12-22T10:53:15;97272.41;;;2.39;82.13
76128;BME280;64873;50.102;14.434;2023-12-22T10:55:41;97307.53;;;2.33;82.64
76128;BME280;64873;50.102;14.434;2023-12-22T10:58:06;97301.72;;;2.25;83.16
76128;BME280;64873;50.102;14.434;2023-12-22T11:00:32;97315.78;;;2.12;85.24
76128;BME280;64873;50.102;14.434;2023-12-22T11:03:01;97308.59;;;1.94;87.20
76128;BME280;64873;50.102;14.434;2023-12-22T11:05:29;97313.09;;;1.80;88.92
76128;BME280;64873;50.102;14.434;2023-12-22T11:07:59;97308.44;;;1.82;89.99
76128;BME280;64873;50.102;14.434;2023-12-22T11:10:30;97323.44;;;1.75;89.88
76128;BME280;64873;50.102;14.434;2023-12-22T11:12:57;97321.63;;;1.69;90.54
76128;BME280;64873;50.102;14.434;2023-12-22T11:15:24;97327.91;;;1.68;90.43
76128;BME280;64873;50.102;14.434;2023-12-22T11:17:51;97331.75;;;1.72;90.89
76128;BME280;64873;50.102;14.434;2023-12-22T11:20:17;97320.03;;;1.68;90.83
76128;BME280;64873;50.102;14.434;2023-12-22T11:22:44;97324.91;;;1.58;90.45
76128;BME280;64873;50.102;14.434;2023-12-22T11:25:10;97315.78;;;1.67;91.45
76128;BME280;64873;50.102;14.434;2023-12-22T11:27:37;97320.78;;;1.75;91.33
76128;BME280;64873;50.102;14.434;2023-12-22T11:30:04;97313.84;;;1.87;90.66
76128;BME280;64873;50.102;14.434;2023-12-22T11:32:33;97320.78;;;1.75;90.35
76128;BME280;64873;50.102;14.434;2023-12-22T11:34:59;97306.94;;;1.93;90.15
76128;BME280;64873;50.102;14.434;2023-12-22T11:37:25;97314.69;;;1.88;90.58
76128;BME280;64873;50.102;14.434;2023-12-22T11:39:50;97317.09;;;1.90;89.85
76128;BME280;64873;50.102;14.434;2023-12-22T11:42:28;97345.44;;;2.01;90.41
76128;BME280;64873;50.102;14.434;2023-12-22T11:44:54;97301.28;;;1.96;89.96
76128;BME280;64873;50.102;14.434;2023-12-22T11:47:23;97320.94;;;1.87;90.53
76128;BME280;64873;50.102;14.434;2023-12-22T11:49:48;97304.97;;;1.89;90.01
76128;BME280;64873;50.102;14.434;2023-12-22T11:52:18;97318.91;;;1.96;89.21
76128;BME280;64873;50.102;14.434;2023-12-22T11:54:48;97303.66;;;2.04;88.99
76128;BME280;64873;50.102;14.434;2023-12-22T11:57:31;97300.03;;;2.05;89.20
76128;BME280;64873;50.102;14.434;2023-12-22T12:00:06;97293.91;;;2.05;89.21
76128;BME280;64873;50.102;14.434;2023-12-22T12:02:36;97293.09;;;2.43;88.67
76128;BME280;64873;50.102;14.434;2023-12-22T12:05:03;97280.44;;;2.51;87.91
76128;BME280;64873;50.102;14.434;2023-12-22T12:07:56;97272.97;;;2.48;87.79
76128;BME280;64873;50.102;14.434;2023-12-22T12:13:10;97237.50;;;2.44;87.32
76128;BME280;64873;50.102;14.434;2023-12-22T12:15:36;97245.75;;;2.54;87.26
76128;BME280;64873;50.102;14.434;2023-12-22T12:18:02;97232.81;;;2.46;87.17
76128;BME280;64873;50.102;14.434;2023-12-22T12:20:28;97230.16;;;2.53;86.51
76128;BME280;64873;50.102;14.434;2023-12-22T12:22:54;97222.09;;;2.48;85.86
76128;BME280;64873;50.102;14.434;2023-12-22T12:25:23;97206.94;;;2.61;85.11
76128;BME280;64873;50.102;14.434;2023-12-22T12:28:02;97223.44;;;2.75;84.00
76128;BME280;64873;50.102;14.434;2023-12-22T12:30:28;97193.56;;;2.81;82.85
76128;BME280;64873;50.102;14.434;2023-12-22T12:32:54;97210.31;;;2.93;81.48
76128;BME280;64873;50.102;14.434;2023-12-22T12:35:20;97202.66;;;3.04;80.42
76128;BME280;64873;50.102;14.434;2023-12-22T12:37:47;97203.09;;;3.37;77.99
76128;BME280;64873;50.102;14.434;2023-12-22T12:40:14;97203.06;;;3.56;76.37
76128;BME280;64873;50.102;14.434;2023-12-22T12:42:45;97184.28;;;3.64;75.26
76128;BME280;64873;50.102;14.434;2023-12-22T12:45:10;97190.75;;;3.80;73.93
76128;BME280;64873;50.102;14.434;2023-12-22T12:47:36;97197.59;;;3.87;73.96
76128;BME280;64873;50.102;14.434;2023-12-22T12:50:01;97189.19;;;3.90;74.76
76128;BME280;64873;50.102;14.434;2023-12-22T12:52:28;97197.81;;;3.97;74.28
76128;BME280;64873;50.102;14.434;2023-12-22T12:54:53;97192.31;;;3.87;74.87
76128;BME280;64873;50.102;14.434;2023-12-22T12:57:19;97179.28;;;3.86;74.83
76128;BME280;64873;50.102;14.434;2023-12-22T12:59:48;97193.28;;;4.05;74.33
76128;BME280;64873;50.102;14.434;2023-12-22T13:02:15;97201.78;;;4.07;73.26